createdAt,value
2022-10-24T00:02:34.985Z,100275.03
2022-10-24T00:07:56.626Z,100271.69
2022-10-24T00:13:18.455Z,100265.28
2022-10-24T00:18:40.614Z,100266.38
2022-10-24T00:24:02.242Z,100264.44
2022-10-24T00:29:23.958Z,100250.00
2022-10-24T00:34:45.766Z,100250.00
2022-10-24T00:40:08.216Z,100246.38
2022-10-24T00:45:50.897Z,100255.56
2022-10-24T00:51:34.080Z,100255.00
2022-10-24T00:57:00.303Z,100249.72
2022-10-24T01:02:22.510Z,100246.09
2022-10-24T01:08:03.257Z,100239.44
2022-10-24T01:13:49.547Z,100250.81
2022-10-24T01:19:13.985Z,100255.81
2022-10-24T01:24:51.116Z,100262.19
2022-10-24T01:30:15.992Z,100246.66
2022-10-24T01:35:47.354Z,100248.88
2022-10-24T01:41:16.688Z,100240.53
2022-10-24T01:46:44.768Z,100245.00
2022-10-24T01:57:54.032Z,100239.97
2022-10-24T02:03:25.510Z,100238.88
2022-10-24T02:08:53.046Z,100244.97
2022-10-24T02:14:30.715Z,100233.84
2022-10-24T02:19:52.601Z,100240.50
2022-10-24T02:25:38.512Z,100243.28
2022-10-24T02:31:16.514Z,100257.47
2022-10-24T02:36:40.366Z,100254.69
2022-10-24T02:42:04.770Z,100254.94
2022-10-24T02:47:28.582Z,100254.13
2022-10-24T02:52:50.306Z,100252.44
2022-10-24T02:58:12.014Z,100252.44
2022-10-24T03:03:33.692Z,100251.63
2022-10-24T03:08:55.432Z,100251.63
2022-10-24T03:14:17.396Z,100248.28
2022-10-24T03:19:39.067Z,100250.22
2022-10-24T03:25:03.321Z,100253.84
2022-10-24T03:30:25.076Z,100253.84
2022-10-24T03:35:46.751Z,100268.81
2022-10-24T03:41:08.467Z,100256.03
2022-10-24T03:46:30.175Z,100242.16
2022-10-24T03:51:51.946Z,100257.16
2022-10-24T03:57:13.667Z,100252.69
2022-10-24T04:02:37.036Z,100247.97
2022-10-24T04:08:00.728Z,100244.66
2022-10-24T04:13:22.468Z,100250.22
2022-10-24T04:18:44.354Z,100251.03
2022-10-24T04:24:06.400Z,100260.47
2022-10-24T04:29:28.054Z,100255.75
2022-10-24T04:34:49.799Z,100258.78
2022-10-24T04:40:11.839Z,100247.69
2022-10-24T04:45:33.482Z,100260.75
2022-10-24T04:50:55.231Z,100262.69
2022-10-24T04:56:17.137Z,100282.13
2022-10-24T05:01:38.869Z,100261.84
2022-10-24T05:07:00.635Z,100266.56
2022-10-24T05:12:22.476Z,100276.56
2022-10-24T05:17:44.387Z,100274.88
2022-10-24T05:23:06.238Z,100288.22
2022-10-24T05:28:28.008Z,100293.22
2022-10-24T05:33:49.648Z,100290.44
2022-10-24T05:39:11.332Z,100288.78
2022-10-24T05:44:33.095Z,100296.00
2022-10-24T05:49:55.002Z,100303.22
2022-10-24T05:55:18.180Z,100302.13
2022-10-24T06:00:40.094Z,100314.91
2022-10-24T06:06:08.167Z,100323.47
2022-10-24T06:11:29.874Z,100344.03
2022-10-24T06:16:51.562Z,100325.44
2022-10-24T06:22:13.276Z,100338.47
2022-10-24T06:27:34.965Z,100330.13
2022-10-24T06:32:56.601Z,100345.97
2022-10-24T06:38:18.255Z,100348.75
2022-10-24T06:43:41.523Z,100360.69
2022-10-24T06:49:03.429Z,100353.44
2022-10-24T06:54:27.735Z,100374.84
2022-10-24T06:59:53.050Z,100380.91
2022-10-24T07:05:14.776Z,100383.41
2022-10-24T07:10:36.632Z,100403.09
2022-10-24T07:15:58.306Z,100400.94
2022-10-24T07:21:25.617Z,100409.84
2022-10-24T07:26:47.380Z,100417.06
2022-10-24T07:32:09.049Z,100433.72
2022-10-24T07:37:30.661Z,100448.19
2022-10-24T07:42:52.325Z,100448.19
2022-10-24T07:48:14.003Z,100459.84
2022-10-24T07:53:35.942Z,100461.50
2022-10-24T07:58:58.750Z,100472.03
2022-10-24T08:04:20.405Z,100479.53
2022-10-24T08:09:44.683Z,100483.16
2022-10-24T08:15:06.839Z,100480.66
2022-10-24T08:20:28.507Z,100488.16
2022-10-24T08:25:50.188Z,100506.75
2022-10-24T08:31:18.360Z,100507.59
2022-10-24T08:36:40.095Z,100510.09
2022-10-24T08:42:05.470Z,100504.25
2022-10-24T08:47:44.887Z,100502.91
2022-10-24T08:53:27.682Z,100499.28
2022-10-24T08:58:52.028Z,100504.84
2022-10-24T09:04:17.526Z,100502.91
2022-10-24T09:09:43.003Z,100511.78
2022-10-24T09:15:15.239Z,100513.16
2022-10-24T09:20:36.968Z,100507.91
2022-10-24T09:25:59.341Z,100513.16
2022-10-24T09:31:24.772Z,100517.63
2022-10-24T09:36:46.794Z,100529.59
2022-10-24T09:42:22.132Z,100530.13
2022-10-24T09:47:44.385Z,100532.34
2022-10-24T09:53:06.395Z,100549.56
2022-10-24T09:58:32.830Z,100555.97
2022-10-24T10:04:09.491Z,100559.34
2022-10-24T10:09:35.147Z,100563.47
2022-10-24T10:14:57.099Z,100573.47
2022-10-24T10:20:38.879Z,100587.09
2022-10-24T10:26:11.799Z,100592.66
2022-10-24T10:31:40.927Z,100605.44
2022-10-24T10:37:02.573Z,100600.41
2022-10-24T10:42:35.371Z,100609.31
2022-10-24T10:48:09.502Z,100621.53
2022-10-24T10:53:57.286Z,100623.22
2022-10-24T10:59:28.566Z,100613.19
2022-10-24T11:05:20.055Z,100611.00
2022-10-24T11:10:51.751Z,100609.31
2022-10-24T11:16:20.486Z,100624.03
2022-10-24T11:21:44.029Z,100620.44
2022-10-24T11:27:20.851Z,100628.75
2022-10-24T11:33:02.255Z,100632.38
2022-10-24T11:38:25.944Z,100640.13
2022-10-24T11:43:48.979Z,100637.34
2022-10-24T11:49:31.402Z,100646.53
2022-10-24T11:54:59.100Z,100652.09
2022-10-24T12:00:28.355Z,100659.56
2022-10-24T12:06:06.586Z,100657.63
2022-10-24T12:11:34.095Z,100661.50
2022-10-24T12:16:55.739Z,100665.97
2022-10-24T12:28:25.708Z,100660.41
2022-10-24T12:34:16.284Z,100663.19
2022-10-24T12:39:45.768Z,100667.91
2022-10-24T12:45:27.483Z,100659.84
2022-10-24T12:51:01.395Z,100653.19
2022-10-24T12:56:23.135Z,100655.97
2022-10-24T13:01:46.545Z,100654.28
2022-10-24T13:07:47.207Z,100663.44
2022-10-24T13:13:30.401Z,100667.06
2022-10-24T13:19:04.239Z,100676.50
2022-10-24T13:24:37.976Z,100678.41
2022-10-24T13:30:03.561Z,100673.13
2022-10-24T13:35:25.783Z,100665.66
2022-10-24T13:40:47.639Z,100666.75
2022-10-24T13:46:13.198Z,100662.88
2022-10-24T13:51:34.981Z,100663.72
2022-10-24T13:56:59.771Z,100681.47
2022-10-24T14:02:31.327Z,100679.28
2022-10-24T14:07:54.102Z,100682.56
2022-10-24T14:13:18.750Z,100680.66
2022-10-24T14:18:41.787Z,100687.03
2022-10-24T14:24:03.549Z,100685.34
2022-10-24T14:29:28.424Z,100687.03
2022-10-24T14:34:50.782Z,100699.22
2022-10-24T14:40:18.081Z,100699.81
2022-10-24T14:45:39.740Z,100702.88
2022-10-24T14:51:03.970Z,100704.78
2022-10-24T14:56:31.493Z,100697.31
2022-10-24T15:02:15.006Z,100715.06
2022-10-24T15:07:40.676Z,100713.13
2022-10-24T15:13:21.653Z,100718.09
2022-10-24T15:18:44.204Z,100717.25
2022-10-24T15:24:06.589Z,100714.50
2022-10-24T15:29:28.916Z,100716.41
2022-10-24T15:34:53.914Z,100728.38
2022-10-24T15:40:20.858Z,100724.75
2022-10-24T15:45:43.006Z,100725.88
2022-10-24T15:51:04.740Z,100731.94
2022-10-24T15:56:26.559Z,100735.13
2022-10-24T16:01:51.230Z,100741.72
2022-10-24T16:07:13.034Z,100747.28
2022-10-24T16:12:34.718Z,100753.41
2022-10-24T16:17:56.400Z,100755.69
2022-10-24T16:23:18.137Z,100743.44
2022-10-24T16:28:39.905Z,100742.34
2022-10-24T16:34:01.749Z,100744.03
2022-10-24T16:39:24.309Z,100744.91
2022-10-24T16:44:46.130Z,100750.19
2022-10-24T16:50:08.490Z,100755.50
2022-10-24T16:55:31.245Z,100751.88
2022-10-24T17:01:02.577Z,100765.25
2022-10-24T17:06:24.295Z,100773.00
2022-10-24T17:11:46.639Z,100785.78
2022-10-24T17:17:08.411Z,100806.91
2022-10-24T17:22:30.267Z,100805.66
2022-10-24T17:27:52.933Z,100834.38
2022-10-24T17:33:15.193Z,100828.38
2022-10-24T17:39:20.683Z,100830.31
2022-10-24T17:44:44.281Z,100846.59
2022-10-24T17:50:06.464Z,100869.19
2022-10-24T17:55:44.962Z,100892.03
2022-10-24T18:01:08.385Z,100896.75
2022-10-24T18:06:30.592Z,100897.03
2022-10-24T18:11:52.349Z,100886.69
2022-10-24T18:17:16.930Z,100876.09
2022-10-24T18:22:39.020Z,100889.94
2022-10-24T18:28:00.750Z,100894.38
2022-10-24T18:33:22.460Z,100907.41
2022-10-24T18:38:44.565Z,100909.31
2022-10-24T18:44:24.819Z,100911.53
2022-10-24T18:49:47.355Z,100914.25
2022-10-24T18:55:18.922Z,100919.78
2022-10-24T19:00:42.965Z,100913.56
2022-10-24T19:06:28.372Z,100918.22
2022-10-24T19:11:51.148Z,100927.38
2022-10-24T19:17:14.466Z,100923.75
2022-10-24T19:22:36.130Z,100914.56
2022-10-24T19:27:57.846Z,100908.19
2022-10-24T19:33:20.912Z,100920.97
2022-10-24T19:38:42.570Z,100917.34
2022-10-24T19:44:05.479Z,100918.44
2022-10-24T19:49:27.144Z,100928.75
2022-10-24T19:54:48.894Z,100925.97
2022-10-24T20:00:11.161Z,100929.56
2022-10-24T20:05:33.122Z,100937.31
2022-10-24T20:10:55.161Z,100938.19
2022-10-24T20:16:16.826Z,100929.84
2022-10-24T20:21:38.562Z,100939.00
2022-10-24T20:27:01.159Z,100933.44
2022-10-24T20:32:22.916Z,100937.31
2022-10-24T20:37:45.454Z,100942.06
2022-10-24T20:43:07.376Z,100938.41
2022-10-24T20:48:29.090Z,100947.63
2022-10-24T20:53:50.903Z,100961.78
2022-10-24T20:59:13.628Z,100967.59
2022-10-24T21:04:35.401Z,100979.47
2022-10-24T21:09:57.088Z,100978.63
2022-10-24T21:15:18.747Z,100986.38
2022-10-24T21:20:40.433Z,100987.72
2022-10-24T21:26:10.497Z,100993.56
2022-10-24T21:31:32.135Z,100997.69
2022-10-24T21:36:53.863Z,101003.78
2022-10-24T21:42:15.575Z,101003.19
2022-10-24T21:47:37.267Z,101002.88
2022-10-24T21:52:58.950Z,101003.13
2022-10-24T21:58:20.648Z,101016.44
2022-10-24T22:03:42.610Z,101016.69
2022-10-24T22:09:06.407Z,101027.25
2022-10-24T22:14:28.183Z,101020.22
2022-10-24T22:19:49.856Z,101032.44
2022-10-24T22:25:11.479Z,101034.66
2022-10-24T22:30:33.318Z,101050.75
2022-10-24T22:35:59.785Z,101060.16
2022-10-24T22:41:22.335Z,101065.97
2022-10-24T22:46:52.901Z,101075.16
2022-10-24T22:52:14.959Z,101080.13
2022-10-24T22:57:36.977Z,101086.19
2022-10-24T23:03:15.594Z,101092.59
2022-10-24T23:08:39.872Z,101099.50
2022-10-24T23:14:01.922Z,101107.25
2022-10-24T23:19:28.812Z,101122.25
2022-10-24T23:24:52.112Z,101123.34
2022-10-24T23:30:22.171Z,101128.03
2022-10-24T23:35:44.229Z,101128.56
2022-10-24T23:41:10.659Z,101136.03
2022-10-24T23:46:37.342Z,101149.91
2022-10-24T23:52:18.455Z,101140.75
2022-10-24T23:57:40.291Z,101152.09
